createdAt,value
2018-05-06T00:00:09.569Z,82.53
2018-05-06T00:01:09.564Z,82.43
2018-05-06T00:02:09.556Z,82.06
2018-05-06T00:03:09.552Z,81.86
2018-05-06T00:04:09.553Z,81.62
2018-05-06T00:05:09.548Z,81.62
2018-05-06T00:06:09.540Z,81.29
2018-05-06T00:07:09.536Z,81.52
2018-05-06T00:08:09.533Z,81.90
2018-05-06T00:09:09.527Z,81.14
2018-05-06T00:10:09.529Z,80.85
2018-05-06T00:11:09.524Z,80.76
2018-05-06T00:12:09.523Z,80.76
2018-05-06T00:13:09.515Z,81.90
2018-05-06T00:14:09.508Z,81.43
2018-05-06T00:15:09.509Z,81.71
2018-05-06T00:16:09.499Z,81.81
2018-05-06T00:17:09.494Z,81.67
2018-05-06T00:18:09.494Z,82.15
2018-05-06T00:19:09.492Z,81.86
2018-05-06T00:20:09.482Z,81.58
2018-05-06T00:21:09.478Z,81.58
2018-05-06T00:22:09.478Z,81.58
2018-05-06T00:23:09.474Z,80.91
2018-05-06T00:24:09.471Z,80.53
2018-05-06T00:25:09.465Z,81.10
2018-05-06T00:26:09.456Z,80.81
2018-05-06T00:27:09.454Z,80.24
2018-05-06T00:28:09.450Z,80.24
2018-05-06T00:29:09.444Z,80.33
2018-05-06T00:30:09.446Z,80.24
2018-05-06T00:31:09.444Z,81.10
2018-05-06T00:32:09.436Z,80.91
2018-05-06T00:33:09.436Z,81.58
2018-05-06T00:34:09.423Z,81.67
2018-05-06T00:35:09.419Z,82.15
2018-05-06T00:36:09.419Z,81.96
2018-05-06T00:37:09.414Z,81.96
2018-05-06T00:38:09.406Z,81.96
2018-05-06T00:39:09.402Z,82.43
2018-05-06T00:40:09.398Z,82.82
2018-05-06T00:41:09.393Z,82.34
2018-05-06T00:42:09.394Z,82.63
2018-05-06T00:43:09.390Z,83.39
2018-05-06T00:44:09.457Z,82.63
2018-05-06T00:45:09.381Z,82.82
2018-05-06T00:46:09.373Z,82.34
2018-05-06T00:47:09.367Z,82.43
2018-05-06T00:48:09.364Z,82.24
2018-05-06T00:49:09.359Z,82.34
2018-05-06T00:50:09.358Z,82.11
2018-05-06T00:51:09.354Z,82.82
2018-05-06T00:52:09.346Z,82.72
2018-05-06T00:53:09.341Z,82.49
2018-05-06T00:54:09.341Z,82.97
2018-05-06T00:55:09.336Z,83.35
2018-05-06T00:56:09.334Z,83.06
2018-05-06T00:57:09.329Z,82.91
2018-05-06T00:58:09.319Z,83.06
2018-05-06T00:59:09.315Z,82.68
2018-05-06T01:00:09.310Z,83.06
2018-05-06T01:01:09.305Z,83.44
2018-05-06T01:02:09.305Z,83.44
2018-05-06T01:03:09.302Z,83.25
2018-05-06T01:04:09.297Z,83.73
2018-05-06T01:05:09.293Z,83.06
2018-05-06T01:06:09.282Z,82.87
2018-05-06T01:07:09.278Z,83.44
2018-05-06T01:08:09.279Z,82.68
2018-05-06T01:09:09.273Z,82.87
2018-05-06T01:10:09.266Z,83.54
2018-05-06T01:11:09.263Z,83.16
2018-05-06T01:12:09.257Z,83.54
2018-05-06T01:13:09.251Z,83.54
2018-05-06T01:14:09.251Z,84.01
2018-05-06T01:15:09.248Z,83.83
2018-05-06T01:16:09.244Z,84.01
2018-05-06T01:17:09.237Z,83.06
2018-05-06T01:18:09.229Z,83.44
2018-05-06T01:19:09.224Z,82.87
2018-05-06T01:20:09.219Z,83.06
2018-05-06T01:21:09.218Z,83.06
2018-05-06T01:22:09.213Z,82.87
2018-05-06T01:23:09.209Z,83.06
2018-05-06T01:24:09.201Z,82.87
2018-05-06T01:25:09.195Z,82.87
2018-05-06T01:26:09.196Z,83.35
2018-05-06T01:27:09.190Z,83.35
2018-05-06T01:28:09.188Z,83.64
2018-05-06T01:29:09.183Z,82.78
2018-05-06T01:30:09.172Z,82.78
2018-05-06T01:31:09.169Z,83.64
2018-05-06T01:32:09.163Z,82.78
2018-05-06T01:33:09.157Z,83.44
2018-05-06T01:34:09.163Z,82.87
2018-05-06T01:35:09.155Z,83.73
2018-05-06T01:36:09.149Z,83.35
2018-05-06T01:37:09.143Z,83.83
2018-05-06T01:38:09.134Z,84.11
2018-05-06T01:39:09.130Z,84.01
2018-05-06T01:40:09.131Z,84.11
2018-05-06T01:41:09.124Z,84.01
2018-05-06T01:42:09.115Z,84.30
2018-05-06T01:43:09.110Z,83.73
2018-05-06T01:44:09.107Z,84.40
2018-05-06T01:45:09.101Z,85.06
2018-05-06T01:46:09.102Z,85.06
2018-05-06T01:47:09.096Z,85.21
2018-05-06T01:48:09.094Z,85.35
2018-05-06T01:49:09.089Z,85.31
2018-05-06T01:50:09.079Z,85.35
2018-05-06T01:51:09.072Z,85.54
2018-05-06T01:52:09.068Z,85.31
2018-05-06T01:53:09.064Z,85.25
2018-05-06T01:54:09.063Z,84.97
2018-05-06T01:55:09.058Z,83.92
2018-05-06T01:56:09.048Z,84.01
2018-05-06T01:57:09.047Z,84.01
2018-05-06T01:58:09.043Z,84.11
2018-05-06T01:59:09.125Z,84.11
2018-05-06T02:00:09.033Z,84.11
2018-05-06T02:01:09.028Z,84.11
2018-05-06T02:02:09.019Z,83.54
2018-05-06T02:03:09.014Z,82.87
2018-05-06T02:04:09.011Z,83.44
2018-05-06T02:05:09.004Z,82.87
2018-05-06T02:06:09.003Z,83.25
2018-05-06T02:07:08.998Z,82.78
2018-05-06T02:08:08.994Z,82.97
2018-05-06T02:09:08.988Z,83.25
2018-05-06T02:10:08.979Z,83.64
2018-05-06T02:11:08.975Z,83.06
2018-05-06T02:12:08.975Z,83.54
2018-05-06T02:13:08.969Z,83.44
2018-05-06T02:14:08.960Z,83.35
2018-05-06T02:15:08.954Z,83.64
2018-05-06T02:16:08.950Z,83.06
2018-05-06T02:17:08.943Z,83.06
2018-05-06T02:18:08.945Z,83.06
2018-05-06T02:19:08.938Z,82.78
2018-05-06T02:20:08.934Z,83.25
2018-05-06T02:21:08.928Z,83.16
2018-05-06T02:22:08.918Z,83.16
2018-05-06T02:23:08.913Z,82.97
2018-05-06T02:24:08.910Z,83.44
2018-05-06T02:25:08.904Z,82.78
2018-05-06T02:26:08.903Z,83.16
2018-05-06T02:27:08.899Z,83.06
2018-05-06T02:28:08.889Z,83.06
2018-05-06T02:29:08.884Z,82.97
2018-05-06T02:30:08.884Z,83.16
2018-05-06T02:31:08.878Z,83.44
2018-05-06T02:32:08.873Z,83.35
2018-05-06T02:33:08.866Z,83.35
2018-05-06T02:34:08.858Z,83.35
2018-05-06T02:35:08.857Z,83.25
2018-05-06T02:36:08.848Z,82.78
2018-05-06T02:37:08.843Z,82.87
2018-05-06T02:38:08.844Z,83.16
2018-05-06T02:39:08.851Z,83.06
2018-05-06T02:40:08.836Z,82.97
2018-05-06T02:41:08.830Z,83.06
2018-05-06T02:42:08.818Z,83.06
2018-05-06T02:43:08.812Z,83.25
2018-05-06T02:44:08.811Z,83.02
2018-05-06T02:45:08.807Z,83.25
2018-05-06T02:46:08.800Z,82.83
2018-05-06T02:47:08.791Z,83.59
2018-05-06T02:48:08.786Z,82.68
2018-05-06T02:49:08.780Z,83.06
2018-05-06T02:50:08.787Z,83.35
2018-05-06T02:51:08.774Z,83.16
2018-05-06T02:52:08.774Z,82.92
2018-05-06T02:53:08.770Z,82.83
2018-05-06T02:54:08.755Z,83.12
2018-05-06T02:55:08.752Z,82.92
2018-05-06T02:56:08.745Z,82.83
2018-05-06T02:57:08.739Z,83.12
2018-05-06T02:58:08.738Z,83.12
2018-05-06T02:59:08.734Z,82.64
2018-05-06T03:00:08.724Z,83.31
2018-05-06T03:01:08.718Z,83.31
2018-05-06T03:02:08.718Z,83.21
2018-05-06T03:03:08.718Z,83.50
2018-05-06T03:04:08.708Z,84.07
2018-05-06T03:05:08.702Z,83.88
2018-05-06T03:06:08.692Z,84.07
2018-05-06T03:07:08.687Z,83.78
2018-05-06T03:08:08.681Z,83.78
2018-05-06T03:09:08.677Z,84.36
2018-05-06T03:10:08.677Z,84.64
2018-05-06T03:11:08.677Z,85.02
2018-05-06T03:12:08.665Z,84.92
2018-05-06T03:13:08.661Z,85.21
2018-05-06T03:14:08.649Z,85.12
2018-05-06T03:15:08.644Z,85.31
2018-05-06T03:16:08.645Z,85.60
2018-05-06T03:17:08.637Z,86.16
2018-05-06T03:18:08.628Z,85.97
2018-05-06T03:19:08.622Z,86.16
2018-05-06T03:20:08.619Z,85.60
2018-05-06T03:21:08.612Z,85.69
2018-05-06T03:22:08.612Z,85.69
2018-05-06T03:23:08.609Z,85.97
2018-05-06T03:24:08.603Z,85.84
2018-05-06T03:25:08.595Z,86.32
2018-05-06T03:26:08.594Z,86.12
2018-05-06T03:27:08.581Z,86.32
2018-05-06T03:28:08.575Z,86.22
2018-05-06T03:29:08.568Z,86.32
2018-05-06T03:30:08.571Z,86.51
2018-05-06T03:31:08.563Z,86.60
2018-05-06T03:32:08.552Z,86.41
2018-05-06T03:33:08.546Z,86.60
2018-05-06T03:34:08.545Z,86.98
2018-05-06T03:35:08.541Z,86.88
2018-05-06T03:36:08.536Z,86.79
2018-05-06T03:37:08.528Z,86.98
2018-05-06T03:38:08.520Z,86.98
2018-05-06T03:39:08.513Z,86.79
2018-05-06T03:40:08.511Z,86.69
2018-05-06T03:41:08.503Z,86.69
2018-05-06T03:42:08.502Z,87.36
2018-05-06T03:43:08.496Z,87.17
2018-05-06T03:44:08.490Z,87.55
2018-05-06T03:45:08.484Z,88.22
2018-05-06T03:46:08.478Z,88.03
2018-05-06T03:47:08.471Z,87.36
2018-05-06T03:48:08.466Z,87.36
2018-05-06T03:49:08.460Z,87.65
2018-05-06T03:50:08.451Z,88.12
2018-05-06T03:51:08.448Z,88.12
2018-05-06T03:52:08.440Z,88.12
2018-05-06T03:53:08.433Z,88.12
2018-05-06T03:54:08.437Z,87.46
2018-05-06T03:55:08.428Z,87.70
2018-05-06T03:56:08.422Z,87.32
2018-05-06T03:57:08.416Z,87.79
2018-05-06T03:58:08.405Z,87.79
2018-05-06T03:59:08.399Z,87.60
2018-05-06T04:00:08.394Z,87.60
2018-05-06T04:01:08.390Z,87.32
2018-05-06T04:02:08.387Z,87.32
2018-05-06T04:03:08.384Z,87.89
2018-05-06T04:04:08.372Z,87.41
2018-05-06T04:05:08.364Z,87.79
2018-05-06T04:06:08.363Z,87.70
2018-05-06T04:07:08.358Z,87.60
2018-05-06T04:08:08.352Z,87.60
2018-05-06T04:09:08.345Z,87.51
2018-05-06T04:10:08.336Z,87.51
2018-05-06T04:11:08.330Z,87.60
2018-05-06T04:12:08.324Z,88.12
2018-05-06T04:13:08.321Z,87.98
2018-05-06T04:14:08.316Z,87.36
2018-05-06T04:15:08.311Z,88.12
2018-05-06T04:16:08.306Z,88.12
2018-05-06T04:17:08.299Z,88.03
2018-05-06T04:18:08.291Z,88.12
2018-05-06T04:19:08.283Z,88.03
2018-05-06T04:20:08.284Z,88.60
2018-05-06T04:21:08.328Z,88.51
2018-05-06T04:22:08.265Z,88.70
2018-05-06T04:23:08.260Z,88.70
2018-05-06T04:24:08.254Z,88.22
2018-05-06T04:25:08.247Z,88.31
2018-05-06T04:26:08.246Z,88.31
2018-05-06T04:27:08.241Z,88.22
2018-05-06T04:28:08.235Z,88.22
2018-05-06T04:29:08.228Z,88.31
2018-05-06T04:30:08.218Z,88.31
2018-05-06T04:31:08.216Z,88.03
2018-05-06T04:32:08.210Z,88.41
2018-05-06T04:33:08.200Z,87.36
2018-05-06T04:34:08.201Z,87.36
2018-05-06T04:35:08.195Z,87.40
2018-05-06T04:36:08.187Z,87.12
2018-05-06T04:37:08.182Z,86.65
2018-05-06T04:38:08.178Z,86.26
2018-05-06T04:39:08.173Z,85.97
2018-05-06T04:40:08.166Z,85.64
2018-05-06T04:41:08.161Z,84.78
2018-05-06T04:42:08.152Z,84.01
2018-05-06T04:43:08.147Z,83.83
2018-05-06T04:44:08.227Z,83.67
2018-05-06T04:45:08.136Z,83.39
2018-05-06T04:46:08.138Z,82.82
2018-05-06T04:47:08.132Z,82.19
2018-05-06T04:48:08.130Z,80.66
2018-05-06T04:49:08.124Z,80.22
2018-05-06T04:50:08.116Z,79.27
2018-05-06T04:51:08.112Z,78.83
2018-05-06T04:52:08.114Z,78.26
2018-05-06T04:53:08.110Z,77.06
2018-05-06T04:54:08.102Z,75.66
2018-05-06T04:55:08.099Z,74.36
2018-05-06T04:56:08.096Z,73.50
2018-05-06T04:57:08.092Z,72.29
2018-05-06T04:58:08.093Z,70.50
2018-05-06T04:59:08.091Z,70.31
2018-05-06T05:00:08.092Z,69.20
2018-05-06T05:01:08.088Z,68.14
2018-05-06T05:02:08.082Z,67.02
2018-05-06T05:03:08.078Z,66.35
2018-05-06T05:04:08.080Z,65.23
2018-05-06T05:05:08.075Z,63.86
2018-05-06T05:06:08.078Z,63.96
2018-05-06T05:07:08.077Z,63.99
2018-05-06T05:08:08.072Z,63.54
2018-05-06T05:09:08.070Z,62.39
2018-05-06T05:10:08.074Z,61.81
2018-05-06T05:11:08.073Z,60.88
2018-05-06T05:12:08.075Z,61.68
2018-05-06T05:13:08.073Z,61.27
2018-05-06T05:14:08.070Z,60.98
2018-05-06T05:15:08.067Z,61.17
2018-05-06T05:16:08.069Z,59.95
2018-05-06T05:17:08.068Z,59.95
2018-05-06T05:18:08.073Z,59.41
2018-05-06T05:19:08.075Z,59.31
2018-05-06T05:20:08.076Z,57.99
2018-05-06T05:21:08.074Z,57.64
2018-05-06T05:22:08.071Z,56.96
2018-05-06T05:23:08.073Z,55.55
2018-05-06T05:24:08.078Z,54.68
2018-05-06T05:25:08.081Z,54.30
2018-05-06T05:26:08.076Z,53.58
2018-05-06T05:27:08.078Z,52.73
2018-05-06T05:28:08.079Z,52.57
2018-05-06T05:29:08.080Z,52.21
2018-05-06T05:30:08.088Z,51.46
2018-05-06T05:31:08.091Z,49.95
2018-05-06T05:32:08.094Z,48.88
2018-05-06T05:33:08.095Z,47.63
2018-05-06T05:34:08.094Z,47.05
2018-05-06T05:35:08.096Z,47.05
2018-05-06T05:36:08.099Z,46.17
2018-05-06T05:37:08.101Z,46.22
2018-05-06T05:38:08.109Z,45.14
2018-05-06T05:39:08.112Z,45.16
2018-05-06T05:40:08.111Z,44.60
2018-05-06T05:41:08.114Z,43.75
2018-05-06T05:42:08.123Z,43.09
2018-05-06T05:43:08.128Z,42.71
2018-05-06T05:44:08.131Z,42.49
2018-05-06T05:45:08.136Z,42.28
2018-05-06T05:46:08.135Z,42.72
2018-05-06T05:47:08.139Z,42.72
2018-05-06T05:48:08.143Z,42.83
2018-05-06T05:49:08.148Z,42.55
2018-05-06T05:50:08.158Z,42.66
2018-05-06T05:51:08.163Z,42.30
2018-05-06T05:52:08.166Z,41.83
2018-05-06T05:53:08.170Z,41.86
2018-05-06T05:54:08.171Z,41.31
2018-05-06T05:55:08.176Z,40.66
2018-05-06T05:56:08.186Z,39.78
2018-05-06T05:57:08.191Z,39.49
2018-05-06T05:58:08.192Z,39.11
2018-05-06T05:59:08.201Z,39.11
2018-05-06T06:00:08.204Z,38.62
2018-05-06T06:01:08.208Z,38.15
2018-05-06T06:02:08.220Z,38.15
2018-05-06T06:03:08.226Z,38.34
2018-05-06T06:04:08.235Z,38.46
2018-05-06T06:05:08.236Z,37.90
2018-05-06T06:06:08.239Z,37.10
2018-05-06T06:07:08.247Z,37.02
2018-05-06T06:08:08.252Z,37.41
2018-05-06T06:09:08.262Z,37.04
2018-05-06T06:10:08.270Z,37.04
2018-05-06T06:11:08.277Z,36.38
2018-05-06T06:12:08.279Z,36.16
2018-05-06T06:13:08.286Z,35.89
2018-05-06T06:14:08.300Z,35.39
2018-05-06T06:15:08.305Z,35.60
2018-05-06T06:16:08.311Z,35.39
2018-05-06T06:17:08.321Z,35.70
2018-05-06T06:18:08.321Z,35.80
2018-05-06T06:19:08.329Z,35.31
2018-05-06T06:20:08.337Z,35.02
2018-05-06T06:21:08.344Z,34.50
2018-05-06T06:22:08.356Z,34.46
2018-05-06T06:23:08.364Z,34.87
2018-05-06T06:24:08.372Z,35.53
2018-05-06T06:25:08.380Z,35.64
2018-05-06T06:26:08.384Z,35.57
2018-05-06T06:27:08.392Z,35.21
2018-05-06T06:28:08.405Z,34.64
2018-05-06T06:29:08.415Z,34.17
2018-05-06T06:30:08.415Z,34.00
2018-05-06T06:31:08.424Z,32.45
2018-05-06T06:32:08.432Z,31.59
2018-05-06T06:33:08.440Z,30.91
2018-05-06T06:34:08.453Z,29.75
2018-05-06T06:35:08.463Z,29.71
2018-05-06T06:36:08.472Z,30.46
2018-05-06T06:37:08.479Z,30.65
2018-05-06T06:38:08.484Z,30.46
2018-05-06T06:39:08.494Z,30.77
2018-05-06T06:40:08.503Z,30.49
2018-05-06T06:41:08.515Z,30.51
2018-05-06T06:42:08.527Z,30.03
2018-05-06T06:43:08.538Z,29.71
2018-05-06T06:44:08.541Z,29.64
2018-05-06T06:45:08.550Z,29.07
2018-05-06T06:46:08.570Z,28.88
2018-05-06T06:47:08.575Z,28.75
2018-05-06T06:48:08.610Z,28.86
2018-05-06T06:49:08.593Z,29.08
2018-05-06T06:50:08.639Z,28.52
2018-05-06T06:51:08.608Z,28.52
2018-05-06T06:52:08.621Z,28.14
2018-05-06T06:53:08.628Z,27.76
2018-05-06T06:54:08.646Z,27.38
2018-05-06T06:55:08.659Z,26.61
2018-05-06T06:56:08.666Z,26.22
2018-05-06T06:57:08.677Z,26.53
2018-05-06T06:58:08.684Z,26.44
2018-05-06T06:59:08.699Z,25.83
2018-05-06T07:00:08.711Z,26.12
2018-05-06T07:01:08.724Z,25.71
2018-05-06T07:02:08.728Z,26.29
2018-05-06T07:03:08.741Z,26.42
2018-05-06T07:04:08.752Z,25.84
2018-05-06T07:05:08.762Z,25.55
2018-05-06T07:06:08.782Z,24.97
2018-05-06T07:07:08.791Z,25.16
2018-05-06T07:08:08.835Z,24.96
2018-05-06T07:09:08.816Z,24.40
2018-05-06T07:10:08.823Z,24.70
2018-05-06T07:11:08.836Z,24.22
2018-05-06T07:12:08.848Z,23.55
2018-05-06T07:13:08.860Z,22.96
2018-05-06T07:14:08.877Z,22.56
2018-05-06T07:15:08.890Z,23.06
2018-05-06T07:16:08.909Z,22.67
2018-05-06T07:17:08.912Z,22.98
2018-05-06T07:18:08.930Z,22.41
2018-05-06T07:19:08.945Z,22.20
2018-05-06T07:20:08.958Z,21.81
2018-05-06T07:21:08.969Z,21.73
2018-05-06T07:22:08.980Z,22.41
2018-05-06T07:23:08.992Z,21.83
2018-05-06T07:24:09.006Z,21.05
2018-05-06T07:25:09.019Z,21.06
2018-05-06T07:26:09.039Z,21.15
2018-05-06T07:27:09.051Z,21.25
2018-05-06T07:28:09.066Z,20.26
2018-05-06T07:29:09.080Z,20.65
2018-05-06T07:30:09.091Z,21.06
2018-05-06T07:31:09.108Z,20.46
2018-05-06T07:32:09.123Z,20.46
2018-05-06T07:33:09.136Z,19.77
2018-05-06T07:34:09.147Z,20.78
2018-05-06T07:35:09.161Z,20.67
2018-05-06T07:36:09.177Z,19.79
2018-05-06T07:37:09.192Z,19.79
2018-05-06T07:38:09.211Z,19.51
2018-05-06T07:39:09.225Z,19.72
2018-05-06T07:40:09.241Z,19.42
2018-05-06T07:41:09.254Z,19.13
2018-05-06T07:42:09.265Z,18.33
2018-05-06T07:43:09.280Z,18.24
2018-05-06T07:44:09.296Z,18.63
2018-05-06T07:45:09.320Z,19.03
2018-05-06T07:46:09.330Z,18.65
2018-05-06T07:47:09.345Z,18.57
2018-05-06T07:48:09.357Z,17.38
2018-05-06T07:49:09.372Z,18.26
2018-05-06T07:50:09.391Z,17.28
2018-05-06T07:51:09.415Z,16.68
2018-05-06T07:52:09.425Z,16.82
2018-05-06T07:53:09.441Z,17.98
2018-05-06T07:54:09.452Z,19.07
2018-05-06T07:55:09.469Z,18.79
2018-05-06T07:56:09.487Z,19.59
2018-05-06T07:57:09.500Z,18.41
2018-05-06T07:58:09.523Z,18.71
2018-05-06T07:59:09.537Z,18.63
2018-05-06T08:00:09.553Z,18.93
2018-05-06T08:01:09.569Z,18.04
2018-05-06T08:02:09.581Z,17.66
2018-05-06T08:03:09.598Z,16.98
2018-05-06T08:04:09.620Z,15.81
2018-05-06T08:05:09.635Z,15.91
2018-05-06T08:06:09.648Z,15.91
2018-05-06T08:07:09.666Z,16.09
2018-05-06T08:08:09.683Z,16.87
2018-05-06T08:09:09.699Z,16.55
2018-05-06T08:10:09.722Z,17.76
2018-05-06T08:11:09.738Z,17.35
2018-05-06T08:12:09.755Z,17.64
2018-05-06T08:13:09.772Z,17.35
2018-05-06T08:14:09.788Z,17.13
2018-05-06T08:15:09.803Z,18.38
2018-05-06T08:16:09.820Z,19.10
2018-05-06T08:17:09.836Z,18.04
2018-05-06T08:18:09.860Z,18.15
2018-05-06T08:19:09.877Z,17.38
2018-05-06T08:20:09.889Z,16.99
2018-05-06T08:21:09.907Z,16.31
2018-05-06T08:22:09.928Z,16.72
2018-05-06T08:23:09.993Z,16.35
2018-05-06T08:24:09.967Z,16.33
2018-05-06T08:25:09.982Z,16.83
2018-05-06T08:26:09.995Z,16.75
2018-05-06T08:27:10.013Z,16.16
2018-05-06T08:28:10.032Z,15.88
2018-05-06T08:29:10.049Z,15.57
2018-05-06T08:30:10.073Z,15.37
2018-05-06T08:31:10.096Z,15.25
2018-05-06T08:32:10.112Z,16.19
2018-05-06T08:33:10.130Z,16.80
2018-05-06T08:34:10.144Z,17.11
2018-05-06T08:35:10.164Z,17.23
2018-05-06T08:36:10.187Z,16.52
2018-05-06T08:37:10.206Z,16.82
2018-05-06T08:38:10.220Z,16.52
2018-05-06T08:39:10.239Z,17.11
2018-05-06T08:40:10.259Z,17.32
2018-05-06T08:41:10.279Z,17.40
2018-05-06T08:42:10.300Z,17.92
2018-05-06T08:43:10.320Z,20.19
2018-05-06T08:44:10.340Z,19.88
2018-05-06T08:45:10.358Z,21.15
2018-05-06T08:46:10.374Z,20.75
2018-05-06T08:47:10.401Z,20.97
2018-05-06T08:48:10.413Z,21.39
2018-05-06T08:49:10.430Z,21.12
2018-05-06T08:50:10.455Z,21.34
2018-05-06T08:51:10.474Z,20.68
2018-05-06T08:52:10.491Z,19.52
2018-05-06T08:53:10.507Z,18.05
2018-05-06T08:54:10.532Z,17.39
2018-05-06T08:55:10.552Z,17.38
2018-05-06T08:56:10.571Z,17.38
2018-05-06T08:57:10.589Z,17.36
2018-05-06T08:58:10.605Z,17.67
2018-05-06T08:59:10.626Z,17.96
2018-05-06T09:00:10.645Z,17.61
2018-05-06T09:01:10.667Z,18.79
2018-05-06T09:02:10.689Z,19.67
2018-05-06T09:03:10.710Z,20.85
2018-05-06T09:04:10.731Z,21.94
2018-05-06T09:05:10.752Z,21.60
2018-05-06T09:06:10.766Z,21.05
2018-05-06T09:07:10.786Z,20.00
2018-05-06T09:08:10.822Z,18.73
2018-05-06T09:09:10.834Z,18.23
2018-05-06T09:10:10.848Z,18.14
2018-05-06T09:11:10.883Z,18.44
2018-05-06T09:12:10.887Z,18.33
2018-05-06T09:13:10.911Z,18.10
2018-05-06T09:14:10.932Z,18.61
2018-05-06T09:15:10.959Z,18.33
2018-05-06T09:16:10.974Z,18.37
2018-05-06T09:17:10.995Z,17.30
2018-05-06T09:18:11.011Z,16.22
2018-05-06T09:19:11.033Z,16.14
2018-05-06T09:20:11.054Z,15.55
2018-05-06T09:21:11.074Z,16.27
2018-05-06T09:22:11.100Z,15.76
2018-05-06T09:23:11.121Z,14.87
2018-05-06T09:24:11.144Z,14.67
2018-05-06T09:25:11.160Z,15.39
2018-05-06T09:26:11.187Z,14.71
2018-05-06T09:27:11.209Z,14.62
2018-05-06T09:28:11.231Z,14.29
2018-05-06T09:29:11.253Z,14.97
2018-05-06T09:30:11.270Z,14.68
2018-05-06T09:31:11.293Z,13.66
2018-05-06T09:32:11.316Z,14.32
2018-05-06T09:33:11.338Z,14.72
2018-05-06T09:34:11.366Z,14.68
2018-05-06T09:35:11.388Z,15.98
2018-05-06T09:36:11.412Z,16.09
2018-05-06T09:37:11.432Z,15.60
2018-05-06T09:38:11.452Z,15.56
2018-05-06T09:39:11.473Z,16.23
2018-05-06T09:40:11.502Z,16.59
2018-05-06T09:41:11.522Z,18.15
2018-05-06T09:42:11.561Z,19.42
2018-05-06T09:43:11.561Z,19.73
2018-05-06T09:44:11.589Z,19.65
2018-05-06T09:45:11.603Z,19.24
2018-05-06T09:46:11.629Z,19.05
2018-05-06T09:47:11.651Z,18.23
2018-05-06T09:48:11.696Z,18.62
2018-05-06T09:49:11.692Z,18.91
2018-05-06T09:50:11.708Z,19.20
2018-05-06T09:51:11.732Z,18.82
2018-05-06T09:52:11.751Z,18.71
2018-05-06T09:53:11.773Z,18.88
2018-05-06T09:54:11.795Z,19.85
2018-05-06T09:55:11.815Z,20.12
2018-05-06T09:56:11.836Z,20.49
2018-05-06T09:57:11.851Z,20.88
2018-05-06T09:58:11.880Z,21.11
2018-05-06T09:59:11.895Z,20.92
2018-05-06T10:00:11.914Z,20.46
2018-05-06T10:01:11.933Z,19.98
2018-05-06T10:02:11.948Z,18.63
2018-05-06T10:03:11.970Z,19.02
2018-05-06T10:04:11.989Z,18.42
2018-05-06T10:05:12.010Z,18.92
2018-05-06T10:06:12.030Z,18.63
2018-05-06T10:07:12.048Z,18.65
2018-05-06T10:08:12.139Z,18.12
2018-05-06T10:09:12.088Z,19.04
2018-05-06T10:10:12.102Z,18.83
2018-05-06T10:11:12.121Z,18.15
2018-05-06T10:12:12.148Z,18.97
2018-05-06T10:13:12.164Z,17.57
2018-05-06T10:14:12.178Z,18.04
2018-05-06T10:15:12.199Z,18.12
2018-05-06T10:16:12.217Z,18.23
2018-05-06T10:17:12.239Z,18.62
2018-05-06T10:18:12.260Z,18.32
2018-05-06T10:19:12.278Z,18.38
2018-05-06T10:20:12.299Z,18.88
2018-05-06T10:21:12.319Z,19.35
2018-05-06T10:22:12.335Z,19.64
2018-05-06T10:23:12.349Z,19.96
2018-05-06T10:24:12.368Z,20.01
2018-05-06T10:25:12.386Z,19.64
2018-05-06T10:26:12.444Z,19.28
2018-05-06T10:27:12.428Z,17.91
2018-05-06T10:28:12.494Z,16.80
2018-05-06T10:29:12.461Z,17.21
2018-05-06T10:30:12.484Z,16.62
2018-05-06T10:31:12.503Z,16.23
2018-05-06T10:32:12.523Z,15.73
2018-05-06T10:33:12.541Z,17.02
2018-05-06T10:34:12.556Z,16.16
2018-05-06T10:35:12.576Z,16.07
2018-05-06T10:36:12.596Z,15.37
2018-05-06T10:37:12.614Z,15.75
2018-05-06T10:38:12.639Z,15.82
2018-05-06T10:39:12.661Z,16.81
2018-05-06T10:40:12.678Z,16.63
2018-05-06T10:41:12.697Z,16.04
2018-05-06T10:42:12.713Z,16.31
2018-05-06T10:43:12.732Z,16.59
2018-05-06T10:44:12.803Z,16.74
2018-05-06T10:45:12.776Z,16.74
2018-05-06T10:46:12.791Z,17.11
2018-05-06T10:47:12.891Z,17.04
2018-05-06T10:48:12.831Z,16.83
2018-05-06T10:49:12.874Z,17.24
2018-05-06T10:50:12.877Z,16.97
2018-05-06T10:51:12.892Z,17.08
2018-05-06T10:52:12.912Z,17.00
2018-05-06T10:53:12.930Z,16.69
2018-05-06T10:54:12.945Z,16.81
2018-05-06T10:55:12.970Z,16.68
2018-05-06T10:56:12.984Z,17.07
2018-05-06T10:57:13.003Z,17.08
2018-05-06T10:58:13.026Z,17.18
2018-05-06T10:59:13.048Z,17.07
2018-05-06T11:00:13.060Z,17.38
2018-05-06T11:01:13.079Z,17.97
2018-05-06T11:02:13.103Z,16.80
2018-05-06T11:03:13.122Z,16.19
2018-05-06T11:04:13.144Z,16.00
2018-05-06T11:05:13.161Z,16.69
2018-05-06T11:06:13.177Z,16.22
2018-05-06T11:07:13.196Z,16.43
2018-05-06T11:08:13.213Z,16.35
2018-05-06T11:09:13.233Z,15.77
2018-05-06T11:10:13.274Z,15.37
2018-05-06T11:11:13.276Z,15.48
2018-05-06T11:12:13.295Z,15.97
2018-05-06T11:13:13.313Z,15.56
2018-05-06T11:14:13.328Z,16.03
2018-05-06T11:15:13.348Z,16.41
2018-05-06T11:16:13.372Z,16.71
2018-05-06T11:17:13.389Z,18.08
2018-05-06T11:18:13.405Z,18.08
2018-05-06T11:19:13.423Z,18.57
2018-05-06T11:20:13.440Z,19.46
2018-05-06T11:21:13.459Z,18.66
2018-05-06T11:22:13.479Z,18.15
2018-05-06T11:23:13.495Z,17.85
2018-05-06T11:24:13.512Z,18.43
2018-05-06T11:25:13.528Z,19.00
2018-05-06T11:26:13.566Z,19.16
2018-05-06T11:27:13.558Z,19.63
2018-05-06T11:28:13.570Z,20.40
2018-05-06T11:29:13.589Z,21.09
2018-05-06T11:30:13.603Z,22.07
2018-05-06T11:31:13.618Z,22.95
2018-05-06T11:32:13.629Z,23.61
2018-05-06T11:33:13.639Z,24.40
2018-05-06T11:34:13.660Z,24.88
2018-05-06T11:35:13.670Z,24.98
2018-05-06T11:36:13.683Z,24.30
2018-05-06T11:37:13.694Z,24.40
2018-05-06T11:38:13.701Z,24.22
2018-05-06T11:39:13.715Z,23.62
2018-05-06T11:40:13.728Z,21.77
2018-05-06T11:41:13.734Z,20.79
2018-05-06T11:42:13.751Z,21.18
2018-05-06T11:43:13.760Z,21.58
2018-05-06T11:44:13.773Z,21.88
2018-05-06T11:45:13.780Z,22.03
2018-05-06T11:46:13.786Z,22.12
2018-05-06T11:47:13.797Z,22.20
2018-05-06T11:48:13.809Z,22.59
2018-05-06T11:49:13.817Z,22.97
2018-05-06T11:50:13.821Z,23.08
2018-05-06T11:51:13.830Z,23.28
2018-05-06T11:52:13.839Z,22.59
2018-05-06T11:53:13.847Z,22.28
2018-05-06T11:54:13.870Z,23.07
2018-05-06T11:55:13.875Z,23.25
2018-05-06T11:56:13.963Z,23.25
2018-05-06T11:57:13.884Z,23.27
2018-05-06T11:58:13.887Z,23.56
2018-05-06T11:59:13.894Z,23.94
2018-05-06T12:00:13.903Z,24.33
2018-05-06T12:01:13.910Z,24.23
2018-05-06T12:02:13.991Z,24.90
2018-05-06T12:03:13.929Z,24.98
2018-05-06T12:04:13.933Z,25.18
2018-05-06T12:05:13.938Z,25.08
2018-05-06T12:06:13.951Z,25.27
2018-05-06T12:07:13.958Z,25.27
2018-05-06T12:08:13.964Z,25.76
2018-05-06T12:09:13.970Z,26.44
2018-05-06T12:10:13.973Z,27.04
2018-05-06T12:11:13.980Z,27.53
2018-05-06T12:12:13.987Z,28.11
2018-05-06T12:13:13.992Z,27.62
2018-05-06T12:14:14.003Z,27.61
2018-05-06T12:15:14.011Z,27.82
2018-05-06T12:16:14.018Z,27.42
2018-05-06T12:17:14.027Z,27.50
2018-05-06T12:18:14.027Z,27.89
2018-05-06T12:19:14.031Z,27.59
2018-05-06T12:20:14.043Z,27.69
2018-05-06T12:21:14.122Z,28.08
2018-05-06T12:22:14.053Z,28.28
2018-05-06T12:23:14.057Z,28.86
2018-05-06T12:24:14.062Z,28.76
2018-05-06T12:25:14.067Z,28.86
2018-05-06T12:26:14.079Z,28.28
2018-05-06T12:27:14.084Z,28.00
2018-05-06T12:28:14.091Z,27.90
2018-05-06T12:29:14.097Z,28.09
2018-05-06T12:30:14.097Z,28.29
2018-05-06T12:31:14.103Z,28.29
2018-05-06T12:32:14.109Z,28.28
2018-05-06T12:33:14.115Z,28.28
2018-05-06T12:34:14.124Z,28.68
2018-05-06T12:35:14.130Z,28.78
2018-05-06T12:36:14.132Z,28.57
2018-05-06T12:37:14.137Z,28.57
2018-05-06T12:38:14.148Z,29.06
2018-05-06T12:39:14.153Z,29.55
2018-05-06T12:40:14.161Z,30.14
2018-05-06T12:41:14.165Z,30.43
2018-05-06T12:42:14.165Z,30.62
2018-05-06T12:43:14.247Z,30.43
2018-05-06T12:44:14.177Z,29.64
2018-05-06T12:45:14.183Z,29.35
2018-05-06T12:46:14.192Z,29.25
2018-05-06T12:47:14.199Z,29.64
2018-05-06T12:48:14.203Z,29.62
2018-05-06T12:49:14.207Z,29.93
2018-05-06T12:50:14.212Z,29.93
2018-05-06T12:51:14.214Z,30.14
2018-05-06T12:52:14.226Z,30.91